Saiyo — A8ZS9 — position and weather

sailwx.info

Track history (hours):
 
Tides and Currents Weather Stations Pressure Air Temp Water Temp Dewpoint Dewpoint Depression Visibility Wind Speed Wind Dir Waves Ship Positions

Saiyo

Last reported at 2017-Oct-30 16:10 UTC. Time now 2017-Nov-20 00:32 UTC.
Position S 25°54' E 153°56'.
Warning: this ship's position is 20 days out of date.

Length 235 m; draft 12.8 m.

Type: Cargo ship. MMSI: 636015291.

Date/timePositionNaut miles runAvg speedWind from/ knotsBaromVisibWave heightAir tempDewpointWater temp
2017-Oct-30 16:10S 25°54' E 153°56'39 8.4
2017-Oct-30 11:34S 26°33' E 153°53'1 8.3
2017-Oct-30 11:30S 26°33' E 153°53'4 8.2
2017-Oct-30 10:59S 26°38' E 153°53'4 8.3
2017-Oct-30 10:30S 26°42' E 153°53'4 8.5
2017-Oct-30 10:00S 26°46' E 153°53'8 8.2
2017-Oct-30 08:58S 26°54' E 153°52'5 8.1
2017-Oct-30 08:19S 26°60' E 153°52'2 7.9
2017-Oct-30 08:00S 27°02' E 153°51'4 8.0
2017-Oct-30 07:30S 27°06' E 153°51'4 8.1
2017-Oct-30 07:00S 27°10' E 153°50'5 8.3
2017-Oct-30 06:25S 27°15' E 153°51'3 8.5
2017-Oct-30 06:00S 27°18' E 153°51'4 8.3
2017-Oct-30 05:30S 27°23' E 153°50'4 8.1
2017-Oct-30 05:00S 27°27' E 153°50'4 7.9
2017-Oct-30 04:30S 27°30' E 153°49'4 7.9
2017-Oct-30 04:00S 27°34' E 153°49'4 7.9
2017-Oct-30 03:30S 27°38' E 153°49'4 8.1
2017-Oct-30 03:00S 27°42' E 153°49'4 8.3
2017-Oct-30 02:30S 27°46' E 153°48'4 8.7
2017-Oct-30 02:00S 27°51' E 153°48'4 8.9
2017-Oct-30 01:30S 27°55' E 153°48'5 9.3
2017-Oct-30 01:00S 27°60' E 153°47'5 9.2
2017-Oct-30 00:30S 28°05' E 153°47'5 9.4
2017-Oct-30 00:00S 28°09' E 153°47'5 9.4
2017-Oct-29 23:30S 28°14' E 153°47'5 9.3
2017-Oct-29 23:00S 28°19' E 153°46'5 9.4
2017-Oct-29 22:30S 28°23' E 153°46'5 9.5
2017-Oct-29 22:00S 28°28' E 153°46'5 9.7
2017-Oct-29 21:30S 28°33' E 153°45'5 9.5
2017-Oct-29 21:00S 28°38' E 153°45'5 9.6
2017-Oct-29 20:30S 28°42' E 153°45'5 9.3
2017-Oct-29 20:00S 28°47' E 153°44'5 9.3
2017-Oct-29 19:30S 28°52' E 153°44'24810.1
2017-Oct-28 19:00S 32°48' E 152°19'611.5
2017-Oct-28 18:30S 32°50' E 152°13'611.6
2017-Oct-28 18:00S 32°51' E 152°06'611.4
2017-Oct-28 17:30S 32°54' E 151°60'611.2
2017-Oct-28 17:00S 32°56' E 151°54'4 7.1
2017-Oct-28 16:30S 32°56' E 151°49'2 4.8
2017-Oct-28 16:00S 32°55' E 151°47'2 3.3
2017-Oct-28 15:30S 32°54' E 151°46'1 1.6
2017-Oct-28 14:59S 32°53' E 151°46'0 0.0
2017-Oct-28 14:29S 32°53' E 151°46'0 0.0
2017-Oct-28 13:59S 32°53' E 151°46'0 0.0
2017-Oct-28 13:29S 32°53' E 151°46'0 0.0
2017-Oct-28 12:59S 32°53' E 151°46'0 0.0
2017-Oct-28 12:29S 32°53' E 151°46'0 0.0
2017-Oct-28 11:59S 32°53' E 151°46'0 0.0
2017-Oct-28 11:29S 32°53' E 151°46'0 0.0
2017-Oct-28 10:56S 32°53' E 151°46'0 0.0
2017-Oct-28 10:29S 32°53' E 151°46'0 0.0
2017-Oct-28 09:59S 32°53' E 151°46'0 0.0
2017-Oct-28 09:29S 32°53' E 151°46'0 0.0
2017-Oct-28 08:59S 32°53' E 151°46'0 0.0
2017-Oct-28 08:29S 32°53' E 151°46'0 0.0
2017-Oct-28 07:59S 32°53' E 151°46'0 0.0
2017-Oct-28 07:23S 32°53' E 151°46'0 0.0
2017-Oct-28 06:59S 32°53' E 151°46'0 0.0
2017-Oct-28 06:29S 32°53' E 151°46'0 0.0
2017-Oct-28 05:59S 32°53' E 151°46'0 0.0
2017-Oct-28 05:29S 32°53' E 151°46'0 0.0
2017-Oct-28 04:47S 32°53' E 151°46'0 0.0
2017-Oct-28 04:29S 32°53' E 151°46'0 0.0
2017-Oct-28 03:59S 32°53' E 151°46'0 0.0
2017-Oct-28 03:29S 32°53' E 151°46'0 0.0
2017-Oct-28 02:59S 32°53' E 151°46'0 0.0
2017-Oct-28 02:29S 32°53' E 151°46'0 0.0
2017-Oct-28 01:59S 32°53' E 151°46'0 0.0
2017-Oct-28 01:29S 32°53' E 151°46'0 0.0
2017-Oct-28 00:50S 32°53' E 151°46'0 0.0
2017-Oct-28 00:29S 32°53' E 151°46'0 0.0
2017-Oct-27 23:59S 32°53' E 151°46'0 0.0
2017-Oct-27 23:29S 32°53' E 151°46'0 0.0
2017-Oct-27 22:53S 32°53' E 151°46'0 0.0
2017-Oct-27 22:29S 32°53' E 151°46'0 0.0
2017-Oct-27 21:59S 32°53' E 151°46'0 0.0
2017-Oct-27 21:29S 32°53' E 151°46'0 0.0
2017-Oct-27 20:59S 32°53' E 151°46'0 0.0
2017-Oct-27 20:29S 32°53' E 151°46'0 0.0
2017-Oct-27 20:00S 32°53' E 151°46'0 0.1
2017-Oct-27 19:30S 32°53' E 151°46'1 2.8
2017-Oct-27 19:00S 32°54' E 151°46'3 5.6
2017-Oct-27 18:30S 32°55' E 151°50'4 8.6
2017-Oct-27 18:00S 32°59' E 151°51'3 5.8
2017-Oct-27 17:30S 33°02' E 151°51'4 7.4
2017-Oct-27 17:00S 33°05' E 151°50'510.4
2017-Oct-27 16:30S 33°10' E 151°48'611.3
2017-Oct-27 16:00S 33°14' E 151°43'4 8.2
2017-Oct-27 15:30S 33°16' E 151°39'0 0.0
2017-Oct-27 06:19S 33°16' E 151°39'0 0.0
2017-Oct-27 05:01S 33°16' E 151°39'0 0.5
2017-Oct-27 04:55S 33°16' E 151°39'0 0.0
2017-Oct-27 03:22S 33°16' E 151°39'0 0.0
2017-Oct-26 20:16S 33°16' E 151°39'0 0.0
2017-Oct-26 19:58S 33°16' E 151°39'0 0.0
2017-Oct-26 19:04S 33°16' E 151°39'0 0.1
2017-Oct-26 18:58S 33°16' E 151°39'0 0.0
2017-Oct-26 17:25S 33°16' E 151°39'0 0.0
2017-Oct-26 16:58S 33°16' E 151°39'0 0.1
2017-Oct-26 16:28S 33°16' E 151°39'0 0.0
2017-Oct-26 15:49S 33°16' E 151°39'0 0.0
2017-Oct-26 15:28S 33°16' E 151°39'0 0.1
2017-Oct-26 14:58S 33°16' E 151°39'0 0.2
2017-Oct-26 14:22S 33°16' E 151°39'0 0.0
2017-Oct-26 03:22S 33°16' E 151°39'0 0.0
2017-Oct-26 02:52S 33°16' E 151°39'0 0.0
2017-Oct-25 16:34S 33°16' E 151°39'0 0.0
2017-Oct-25 14:52S 33°16' E 151°39'0 0.0
2017-Oct-25 14:25S 33°16' E 151°39'0 0.0
2017-Oct-25 13:07S 33°16' E 151°39'0 0.0
2017-Oct-25 12:49S 33°16' E 151°39'0 0.0
2017-Oct-25 12:25S 33°16' E 151°39'0 0.0
2017-Oct-25 11:58S 33°16' E 151°39'0 0.2
2017-Oct-25 11:28S 33°16' E 151°39'0 0.3
2017-Oct-25 10:58S 33°16' E 151°39'0 0.6
2017-Oct-25 10:28S 33°17' E 151°39'0 0.1
2017-Oct-25 09:58S 33°17' E 151°39'0 0.0
2017-Oct-25 09:28S 33°17' E 151°39'0 0.0
2017-Oct-25 08:55S 33°17' E 151°39'0 0.1
2017-Oct-25 08:28S 33°17' E 151°39'0 0.1
2017-Oct-25 07:58S 33°17' E 151°39'0 0.1
2017-Oct-25 07:25S 33°17' E 151°39'0 0.1
2017-Oct-25 05:01S 33°17' E 151°39'0 1.0
2017-Oct-25 04:58S 33°17' E 151°39'0 0.1
2017-Oct-25 04:16S 33°17' E 151°39'0 0.2
2017-Oct-25 03:58S 33°17' E 151°39'0 0.1
2017-Oct-25 03:22S 33°17' E 151°39'0 0.0
2017-Oct-25 01:01S 33°17' E 151°39'0 0.2
2017-Oct-25 00:58S 33°17' E 151°39'0 0.2
2017-Oct-25 00:28S 33°17' E 151°39'0 0.0
2017-Oct-24 23:58S 33°17' E 151°39'0 0.1
2017-Oct-24 23:28S 33°17' E 151°39'0 0.0
2017-Oct-24 22:58S 33°17' E 151°39'0 0.1
2017-Oct-24 22:13S 33°17' E 151°39'0 0.0
2017-Oct-24 21:55S 33°17' E 151°39'0 0.0
2017-Oct-24 21:25S 33°17' E 151°39'0 0.1
2017-Oct-24 20:58S 33°16' E 151°39'0 0.0
2017-Oct-24 20:28S 33°16' E 151°39'0 0.1
2017-Oct-24 19:58S 33°16' E 151°39'0 0.0
2017-Oct-24 19:28S 33°16' E 151°39'0 0.1
2017-Oct-24 18:55S 33°16' E 151°39'0 0.0
2017-Oct-24 18:28S 33°16' E 151°39'0 0.0
2017-Oct-24 17:58S 33°16' E 151°39'0 0.1
2017-Oct-24 17:28S 33°16' E 151°39'0 0.0
2017-Oct-24 16:58S 33°16' E 151°39'0 0.1
2017-Oct-24 16:28S 33°16' E 151°39'0 0.0
2017-Oct-24 15:58S 33°16' E 151°39'0 0.1
2017-Oct-24 15:28S 33°16' E 151°39'0 0.0
2017-Oct-24 14:58S 33°16' E 151°39'0 0.0
2017-Oct-24 14:28S 33°16' E 151°39'0 0.1
2017-Oct-24 13:58S 33°17' E 151°39'0 0.1
2017-Oct-24 13:28S 33°17' E 151°39'0 0.1
2017-Oct-24 12:40S 33°17' E 151°39'0 0.0
2017-Oct-24 12:28S 33°17' E 151°39'0 0.1
2017-Oct-24 11:46S 33°17' E 151°39'0 0.0
2017-Oct-24 11:28S 33°17' E 151°39'0 0.1
2017-Oct-24 10:58S 33°17' E 151°39'0 0.0
2017-Oct-24 10:28S 33°17' E 151°39'0 0.1
2017-Oct-24 09:58S 33°17' E 151°39'0 0.0
2017-Oct-24 09:28S 33°17' E 151°39'0 0.0
2017-Oct-24 08:58S 33°17' E 151°39'0 0.0
2017-Oct-24 08:28S 33°17' E 151°39'0 0.0
2017-Oct-24 07:58S 33°17' E 151°39'0 0.1
2017-Oct-24 07:28S 33°17' E 151°39'0 0.0
2017-Oct-24 06:58S 33°17' E 151°39'0 0.0
2017-Oct-24 06:28S 33°17' E 151°39'0 0.0
2017-Oct-24 05:58S 33°17' E 151°39'0 0.0
2017-Oct-24 05:28S 33°16' E 151°39'0 0.0
2017-Oct-24 04:58S 33°16' E 151°39'0 0.0
2017-Oct-24 04:28S 33°16' E 151°39'0 0.0
2017-Oct-24 03:52S 33°16' E 151°39'0 0.0
2017-Oct-24 03:28S 33°16' E 151°39'0 0.0
2017-Oct-24 02:52S 33°16' E 151°39'0 0.0
2017-Oct-24 02:25S 33°16' E 151°39'0 0.0
2017-Oct-24 01:55S 33°16' E 151°39'0 0.0
2017-Oct-24 01:28S 33°16' E 151°39'0 0.0
2017-Oct-24 00:52S 33°16' E 151°39'0 0.4
2017-Oct-24 00:22S 33°16' E 151°39'1 3.5
2017-Oct-24 00:00S 33°15' E 151°40'4 7.3
2017-Oct-23 23:30S 33°13' E 151°43'4 7.8
2017-Oct-23 22:59S 33°11' E 151°48'612.2
2017-Oct-23 22:30S 33°07' E 151°53'612.8
2017-Oct-23 22:00S 33°02' E 151°56'612.2
2017-Oct-23 21:30S 32°56' E 151°60'612.5
2017-Oct-23 21:00S 32°54' E 152°06'612.6
2017-Oct-23 20:30S 32°51' E 152°13'612.5
2017-Oct-23 20:00S 32°48' E 152°20'612.5
2017-Oct-23 19:30S 32°44' E 152°25'713.0
2017-Oct-23 19:00S 32°40' E 152°32'713.3
2017-Oct-23 18:30S 32°36' E 152°38'612.8
2017-Oct-23 18:00S 32°31' E 152°43'713.2
2017-Oct-23 17:30S 32°25' E 152°45'23613.6
2017-Oct-23 00:11S 28°36' E 153°53'314.7
2017-Oct-22 23:59S 28°33' E 153°53'715.0
2017-Oct-22 23:31S 28°26' E 153°53'815.2
2017-Oct-22 23:01S 28°19' E 153°53'816.8
2017-Oct-22 22:31S 28°10' E 153°54'816.7
2017-Oct-22 22:00S 28°02' E 153°54'816.7
2017-Oct-22 21:30S 27°53' E 153°54'816.2
2017-Oct-22 21:00S 27°45' E 153°55'714.3
2017-Oct-22 20:30S 27°38' E 153°55'3514.2
2017-Oct-22 18:03S 27°03' E 153°57'215.1
2017-Oct-22 17:54S 27°01' E 153°57'  
Track history (hours):
 
Tides and Currents Weather Stations Pressure Air Temp Water Temp Dewpoint Dewpoint Depression Visibility Wind Speed Wind Dir Waves Ship Positions

Saiyo

Last reported at 2017-Oct-30 16:10 UTC. Time now 2017-Nov-20 00:32 UTC.
Position S 25°54' E 153°56'.
Warning: this ship's position is 20 days out of date.

Length 235 m; draft 12.8 m.

Type: Cargo ship. MMSI: 636015291.

Date/timePositionNaut miles runAvg speedWind from/ knotsBaromVisibWave heightAir tempDewpointWater temp
2017-Oct-30 16:10S 25°54' E 153°56'39 8.4
2017-Oct-30 11:34S 26°33' E 153°53'1 8.3
2017-Oct-30 11:30S 26°33' E 153°53'4 8.2
2017-Oct-30 10:59S 26°38' E 153°53'4 8.3
2017-Oct-30 10:30S 26°42' E 153°53'4 8.5
2017-Oct-30 10:00S 26°46' E 153°53'8 8.2
2017-Oct-30 08:58S 26°54' E 153°52'5 8.1
2017-Oct-30 08:19S 26°60' E 153°52'2 7.9
2017-Oct-30 08:00S 27°02' E 153°51'4 8.0
2017-Oct-30 07:30S 27°06' E 153°51'4 8.1
2017-Oct-30 07:00S 27°10' E 153°50'5 8.3
2017-Oct-30 06:25S 27°15' E 153°51'3 8.5
2017-Oct-30 06:00S 27°18' E 153°51'4 8.3
2017-Oct-30 05:30S 27°23' E 153°50'4 8.1
2017-Oct-30 05:00S 27°27' E 153°50'4 7.9
2017-Oct-30 04:30S 27°30' E 153°49'4 7.9
2017-Oct-30 04:00S 27°34' E 153°49'4 7.9
2017-Oct-30 03:30S 27°38' E 153°49'4 8.1
2017-Oct-30 03:00S 27°42' E 153°49'4 8.3
2017-Oct-30 02:30S 27°46' E 153°48'4 8.7
2017-Oct-30 02:00S 27°51' E 153°48'4 8.9
2017-Oct-30 01:30S 27°55' E 153°48'5 9.3
2017-Oct-30 01:00S 27°60' E 153°47'5 9.2
2017-Oct-30 00:30S 28°05' E 153°47'5 9.4
2017-Oct-30 00:00S 28°09' E 153°47'5 9.4
2017-Oct-29 23:30S 28°14' E 153°47'5 9.3
2017-Oct-29 23:00S 28°19' E 153°46'5 9.4
2017-Oct-29 22:30S 28°23' E 153°46'5 9.5
2017-Oct-29 22:00S 28°28' E 153°46'5 9.7
2017-Oct-29 21:30S 28°33' E 153°45'5 9.5
2017-Oct-29 21:00S 28°38' E 153°45'5 9.6
2017-Oct-29 20:30S 28°42' E 153°45'5 9.3
2017-Oct-29 20:00S 28°47' E 153°44'5 9.3
2017-Oct-29 19:30S 28°52' E 153°44'24810.1
2017-Oct-28 19:00S 32°48' E 152°19'611.5
2017-Oct-28 18:30S 32°50' E 152°13'611.6
2017-Oct-28 18:00S 32°51' E 152°06'611.4
2017-Oct-28 17:30S 32°54' E 151°60'611.2
2017-Oct-28 17:00S 32°56' E 151°54'4 7.1
2017-Oct-28 16:30S 32°56' E 151°49'2 4.8
2017-Oct-28 16:00S 32°55' E 151°47'2 3.3
2017-Oct-28 15:30S 32°54' E 151°46'1 1.6
2017-Oct-28 14:59S 32°53' E 151°46'0 0.0
2017-Oct-28 14:29S 32°53' E 151°46'0 0.0
2017-Oct-28 13:59S 32°53' E 151°46'0 0.0
2017-Oct-28 13:29S 32°53' E 151°46'0 0.0
2017-Oct-28 12:59S 32°53' E 151°46'0 0.0
2017-Oct-28 12:29S 32°53' E 151°46'0 0.0
2017-Oct-28 11:59S 32°53' E 151°46'0 0.0
2017-Oct-28 11:29S 32°53' E 151°46'0 0.0
2017-Oct-28 10:56S 32°53' E 151°46'0 0.0
2017-Oct-28 10:29S 32°53' E 151°46'0 0.0
2017-Oct-28 09:59S 32°53' E 151°46'0 0.0
2017-Oct-28 09:29S 32°53' E 151°46'0 0.0
2017-Oct-28 08:59S 32°53' E 151°46'0 0.0
2017-Oct-28 08:29S 32°53' E 151°46'0 0.0
2017-Oct-28 07:59S 32°53' E 151°46'0 0.0
2017-Oct-28 07:23S 32°53' E 151°46'0 0.0
2017-Oct-28 06:59S 32°53' E 151°46'0 0.0
2017-Oct-28 06:29S 32°53' E 151°46'0 0.0
2017-Oct-28 05:59S 32°53' E 151°46'0 0.0
2017-Oct-28 05:29S 32°53' E 151°46'0 0.0
2017-Oct-28 04:47S 32°53' E 151°46'0 0.0
2017-Oct-28 04:29S 32°53' E 151°46'0 0.0
2017-Oct-28 03:59S 32°53' E 151°46'0 0.0
2017-Oct-28 03:29S 32°53' E 151°46'0 0.0
2017-Oct-28 02:59S 32°53' E 151°46'0 0.0
2017-Oct-28 02:29S 32°53' E 151°46'0 0.0
2017-Oct-28 01:59S 32°53' E 151°46'0 0.0
2017-Oct-28 01:29S 32°53' E 151°46'0 0.0
2017-Oct-28 00:50S 32°53' E 151°46'0 0.0
2017-Oct-28 00:29S 32°53' E 151°46'0 0.0
2017-Oct-27 23:59S 32°53' E 151°46'0 0.0
2017-Oct-27 23:29S 32°53' E 151°46'0 0.0
2017-Oct-27 22:53S 32°53' E 151°46'0 0.0
2017-Oct-27 22:29S 32°53' E 151°46'0 0.0
2017-Oct-27 21:59S 32°53' E 151°46'0 0.0
2017-Oct-27 21:29S 32°53' E 151°46'0 0.0
2017-Oct-27 20:59S 32°53' E 151°46'0 0.0
2017-Oct-27 20:29S 32°53' E 151°46'0 0.0
2017-Oct-27 20:00S 32°53' E 151°46'0 0.1
2017-Oct-27 19:30S 32°53' E 151°46'1 2.8
2017-Oct-27 19:00S 32°54' E 151°46'3 5.6
2017-Oct-27 18:30S 32°55' E 151°50'4 8.6
2017-Oct-27 18:00S 32°59' E 151°51'3 5.8
2017-Oct-27 17:30S 33°02' E 151°51'4 7.4
2017-Oct-27 17:00S 33°05' E 151°50'510.4
2017-Oct-27 16:30S 33°10' E 151°48'611.3
2017-Oct-27 16:00S 33°14' E 151°43'4 8.2
2017-Oct-27 15:30S 33°16' E 151°39'0 0.0
2017-Oct-27 06:19S 33°16' E 151°39'0 0.0
2017-Oct-27 05:01S 33°16' E 151°39'0 0.5
2017-Oct-27 04:55S 33°16' E 151°39'0 0.0
2017-Oct-27 03:22S 33°16' E 151°39'0 0.0
2017-Oct-26 20:16S 33°16' E 151°39'0 0.0
2017-Oct-26 19:58S 33°16' E 151°39'0 0.0
2017-Oct-26 19:04S 33°16' E 151°39'0 0.1
2017-Oct-26 18:58S 33°16' E 151°39'0 0.0
2017-Oct-26 17:25S 33°16' E 151°39'0 0.0
2017-Oct-26 16:58S 33°16' E 151°39'0 0.1
2017-Oct-26 16:28S 33°16' E 151°39'0 0.0
2017-Oct-26 15:49S 33°16' E 151°39'0 0.0
2017-Oct-26 15:28S 33°16' E 151°39'0 0.1
2017-Oct-26 14:58S 33°16' E 151°39'0 0.2
2017-Oct-26 14:22S 33°16' E 151°39'0 0.0
2017-Oct-26 03:22S 33°16' E 151°39'0 0.0
2017-Oct-26 02:52S 33°16' E 151°39'0 0.0
2017-Oct-25 16:34S 33°16' E 151°39'0 0.0
2017-Oct-25 14:52S 33°16' E 151°39'0 0.0
2017-Oct-25 14:25S 33°16' E 151°39'0 0.0
2017-Oct-25 13:07S 33°16' E 151°39'0 0.0
2017-Oct-25 12:49S 33°16' E 151°39'0 0.0
2017-Oct-25 12:25S 33°16' E 151°39'0 0.0
2017-Oct-25 11:58S 33°16' E 151°39'0 0.2
2017-Oct-25 11:28S 33°16' E 151°39'0 0.3
2017-Oct-25 10:58S 33°16' E 151°39'0 0.6
2017-Oct-25 10:28S 33°17' E 151°39'0 0.1
2017-Oct-25 09:58S 33°17' E 151°39'0 0.0
2017-Oct-25 09:28S 33°17' E 151°39'0 0.0
2017-Oct-25 08:55S 33°17' E 151°39'0 0.1
2017-Oct-25 08:28S 33°17' E 151°39'0 0.1
2017-Oct-25 07:58S 33°17' E 151°39'0 0.1
2017-Oct-25 07:25S 33°17' E 151°39'0 0.1
2017-Oct-25 05:01S 33°17' E 151°39'0 1.0
2017-Oct-25 04:58S 33°17' E 151°39'0 0.1
2017-Oct-25 04:16S 33°17' E 151°39'0 0.2
2017-Oct-25 03:58S 33°17' E 151°39'0 0.1
2017-Oct-25 03:22S 33°17' E 151°39'0 0.0
2017-Oct-25 01:01S 33°17' E 151°39'0 0.2
2017-Oct-25 00:58S 33°17' E 151°39'0 0.2
2017-Oct-25 00:28S 33°17' E 151°39'0 0.0
2017-Oct-24 23:58S 33°17' E 151°39'0 0.1
2017-Oct-24 23:28S 33°17' E 151°39'0 0.0
2017-Oct-24 22:58S 33°17' E 151°39'0 0.1
2017-Oct-24 22:13S 33°17' E 151°39'0 0.0
2017-Oct-24 21:55S 33°17' E 151°39'0 0.0
2017-Oct-24 21:25S 33°17' E 151°39'0 0.1
2017-Oct-24 20:58S 33°16' E 151°39'0 0.0
2017-Oct-24 20:28S 33°16' E 151°39'0 0.1
2017-Oct-24 19:58S 33°16' E 151°39'0 0.0
2017-Oct-24 19:28S 33°16' E 151°39'0 0.1
2017-Oct-24 18:55S 33°16' E 151°39'0 0.0
2017-Oct-24 18:28S 33°16' E 151°39'0 0.0
2017-Oct-24 17:58S 33°16' E 151°39'0 0.1
2017-Oct-24 17:28S 33°16' E 151°39'0 0.0
2017-Oct-24 16:58S 33°16' E 151°39'0 0.1
2017-Oct-24 16:28S 33°16' E 151°39'0 0.0
2017-Oct-24 15:58S 33°16' E 151°39'0 0.1
2017-Oct-24 15:28S 33°16' E 151°39'0 0.0
2017-Oct-24 14:58S 33°16' E 151°39'0 0.0
2017-Oct-24 14:28S 33°16' E 151°39'0 0.1
2017-Oct-24 13:58S 33°17' E 151°39'0 0.1
2017-Oct-24 13:28S 33°17' E 151°39'0 0.1
2017-Oct-24 12:40S 33°17' E 151°39'0 0.0
2017-Oct-24 12:28S 33°17' E 151°39'0 0.1
2017-Oct-24 11:46S 33°17' E 151°39'0 0.0
2017-Oct-24 11:28S 33°17' E 151°39'0 0.1
2017-Oct-24 10:58S 33°17' E 151°39'0 0.0
2017-Oct-24 10:28S 33°17' E 151°39'0 0.1
2017-Oct-24 09:58S 33°17' E 151°39'0 0.0
2017-Oct-24 09:28S 33°17' E 151°39'0 0.0
2017-Oct-24 08:58S 33°17' E 151°39'0 0.0
2017-Oct-24 08:28S 33°17' E 151°39'0 0.0
2017-Oct-24 07:58S 33°17' E 151°39'0 0.1
2017-Oct-24 07:28S 33°17' E 151°39'0 0.0
2017-Oct-24 06:58S 33°17' E 151°39'0 0.0
2017-Oct-24 06:28S 33°17' E 151°39'0 0.0
2017-Oct-24 05:58S 33°17' E 151°39'0 0.0
2017-Oct-24 05:28S 33°16' E 151°39'0 0.0
2017-Oct-24 04:58S 33°16' E 151°39'0 0.0
2017-Oct-24 04:28S 33°16' E 151°39'0 0.0
2017-Oct-24 03:52S 33°16' E 151°39'0 0.0
2017-Oct-24 03:28S 33°16' E 151°39'0 0.0
2017-Oct-24 02:52S 33°16' E 151°39'0 0.0
2017-Oct-24 02:25S 33°16' E 151°39'0 0.0
2017-Oct-24 01:55S 33°16' E 151°39'0 0.0
2017-Oct-24 01:28S 33°16' E 151°39'0 0.0
2017-Oct-24 00:52S 33°16' E 151°39'0 0.4
2017-Oct-24 00:22S 33°16' E 151°39'1 3.5
2017-Oct-24 00:00S 33°15' E 151°40'4 7.3
2017-Oct-23 23:30S 33°13' E 151°43'4 7.8
2017-Oct-23 22:59S 33°11' E 151°48'612.2
2017-Oct-23 22:30S 33°07' E 151°53'612.8
2017-Oct-23 22:00S 33°02' E 151°56'612.2
2017-Oct-23 21:30S 32°56' E 151°60'612.5
2017-Oct-23 21:00S 32°54' E 152°06'612.6
2017-Oct-23 20:30S 32°51' E 152°13'612.5
2017-Oct-23 20:00S 32°48' E 152°20'612.5
2017-Oct-23 19:30S 32°44' E 152°25'713.0
2017-Oct-23 19:00S 32°40' E 152°32'713.3
2017-Oct-23 18:30S 32°36' E 152°38'612.8
2017-Oct-23 18:00S 32°31' E 152°43'713.2
2017-Oct-23 17:30S 32°25' E 152°45'23613.6
2017-Oct-23 00:11S 28°36' E 153°53'314.7
2017-Oct-22 23:59S 28°33' E 153°53'715.0
2017-Oct-22 23:31S 28°26' E 153°53'815.2
2017-Oct-22 23:01S 28°19' E 153°53'816.8
2017-Oct-22 22:31S 28°10' E 153°54'816.7
2017-Oct-22 22:00S 28°02' E 153°54'816.7
2017-Oct-22 21:30S 27°53' E 153°54'816.2
2017-Oct-22 21:00S 27°45' E 153°55'714.3
2017-Oct-22 20:30S 27°38' E 153°55'3514.2
2017-Oct-22 18:03S 27°03' E 153°57'215.1
2017-Oct-22 17:54S 27°01' E 153°57'  

Dump ship's entire track history